createdAt,value
2022-09-28T00:01:10.080Z,10.80
2022-09-28T00:03:38.333Z,10.80
2022-09-28T00:06:08.535Z,10.80
2022-09-28T00:08:37.246Z,10.80
2022-09-28T00:11:08.589Z,10.80
2022-09-28T00:13:36.789Z,10.80
2022-09-28T00:16:07.107Z,10.80
2022-09-28T00:18:36.084Z,10.90
2022-09-28T00:21:05.712Z,10.90
2022-09-28T00:23:34.228Z,10.90
2022-09-28T00:26:07.142Z,10.90
2022-09-28T00:28:35.121Z,10.90
2022-09-28T00:31:03.275Z,10.80
2022-09-28T00:33:31.323Z,10.80
2022-09-28T00:35:59.863Z,10.80
2022-09-28T00:38:29.330Z,10.70
2022-09-28T00:40:57.746Z,10.80
2022-09-28T00:43:28.023Z,10.80
2022-09-28T00:46:00.237Z,10.80
2022-09-28T00:48:32.201Z,10.80
2022-09-28T00:51:03.622Z,10.80
2022-09-28T00:53:34.853Z,10.90
2022-09-28T00:56:07.421Z,10.90
2022-09-28T00:58:40.083Z,10.90
2022-09-28T01:01:08.807Z,10.80
2022-09-28T01:03:38.675Z,10.80
2022-09-28T01:06:08.665Z,10.80
2022-09-28T01:08:38.265Z,10.80
2022-09-28T01:11:06.792Z,10.80
2022-09-28T01:13:36.480Z,10.80
2022-09-28T01:16:13.988Z,10.80
2022-09-28T01:18:54.615Z,10.80
2022-09-28T01:21:24.723Z,10.80
2022-09-28T01:24:10.927Z,10.80
2022-09-28T01:27:05.793Z,10.70
2022-09-28T01:29:47.241Z,10.70
2022-09-28T01:32:26.609Z,10.70
2022-09-28T01:35:01.526Z,10.70
2022-09-28T01:37:39.572Z,10.70
2022-09-28T01:40:09.906Z,10.60
2022-09-28T01:42:40.899Z,10.60
2022-09-28T01:45:15.363Z,10.60
2022-09-28T01:47:46.644Z,10.70
2022-09-28T01:50:19.384Z,10.60
2022-09-28T01:52:52.545Z,10.70
2022-09-28T01:55:29.832Z,10.60
2022-09-28T01:58:04.267Z,10.60
2022-09-28T02:00:35.677Z,10.50
2022-09-28T02:03:10.873Z,10.60
2022-09-28T02:05:49.877Z,10.60
2022-09-28T02:08:26.944Z,10.70
2022-09-28T02:11:01.367Z,10.70
2022-09-28T02:13:36.422Z,10.70
2022-09-28T02:16:08.088Z,10.70
2022-09-28T02:18:36.445Z,10.60
2022-09-28T02:21:11.007Z,10.60
2022-09-28T02:23:42.219Z,10.60
2022-09-28T02:26:14.899Z,10.50
2022-09-28T02:28:44.367Z,10.60
2022-09-28T02:31:12.512Z,10.50
2022-09-28T02:33:43.845Z,10.50
2022-09-28T02:36:12.454Z,10.50
2022-09-28T02:38:40.770Z,10.50
2022-09-28T02:41:17.402Z,10.50
2022-09-28T02:43:56.786Z,10.50
2022-09-28T02:46:31.444Z,10.50
2022-09-28T02:49:21.838Z,10.50
2022-09-28T02:52:09.222Z,10.60
2022-09-28T02:55:00.875Z,10.60
2022-09-28T02:57:38.470Z,10.50
2022-09-28T03:00:12.032Z,10.50
2022-09-28T03:03:02.264Z,10.60
2022-09-28T03:05:38.234Z,10.60
2022-09-28T03:08:12.886Z,10.60
2022-09-28T03:10:46.054Z,10.60
2022-09-28T03:13:16.339Z,10.70
2022-09-28T03:15:48.801Z,10.70
2022-09-28T03:18:18.897Z,10.70
2022-09-28T03:20:47.499Z,10.70
2022-09-28T03:23:30.720Z,10.70
2022-09-28T03:25:59.496Z,10.70
2022-09-28T03:28:28.143Z,10.70
2022-09-28T03:30:58.213Z,10.80
2022-09-28T03:33:26.539Z,10.80
2022-09-28T03:35:54.829Z,10.80
2022-09-28T03:38:23.154Z,10.80
2022-09-28T03:40:55.176Z,10.80
2022-09-28T03:43:24.651Z,10.80
2022-09-28T03:45:55.295Z,10.70
2022-09-28T03:48:31.246Z,10.70
2022-09-28T03:51:02.341Z,10.70
2022-09-28T03:53:30.740Z,10.70
2022-09-28T03:56:04.938Z,10.70
2022-09-28T03:58:33.713Z,10.70
2022-09-28T04:01:07.542Z,10.70
2022-09-28T04:03:37.109Z,10.60
2022-09-28T04:06:06.130Z,10.60
2022-09-28T04:08:34.192Z,10.60
2022-09-28T04:11:03.340Z,10.60
2022-09-28T04:13:31.619Z,10.80
2022-09-28T04:16:01.990Z,10.70
2022-09-28T04:18:35.160Z,10.80
2022-09-28T04:21:19.347Z,10.70
2022-09-28T04:23:53.078Z,10.60
2022-09-28T04:26:24.095Z,10.60
2022-09-28T04:29:09.783Z,10.50
2022-09-28T04:31:42.366Z,10.50
2022-09-28T04:34:10.581Z,10.50
2022-09-28T04:36:39.961Z,10.50
2022-09-28T04:39:08.049Z,10.50
2022-09-28T04:41:36.378Z,10.50
2022-09-28T04:44:04.494Z,10.60
2022-09-28T04:46:32.515Z,10.60
2022-09-28T04:49:24.389Z,10.60
2022-09-28T04:51:59.445Z,10.60
2022-09-28T04:54:27.503Z,10.60
2022-09-28T04:56:55.428Z,10.70
2022-09-28T04:59:23.414Z,10.70
2022-09-28T05:01:52.030Z,10.70
2022-09-28T05:04:25.997Z,10.70
2022-09-28T05:07:14.184Z,10.70
2022-09-28T05:09:42.170Z,10.60
2022-09-28T05:12:10.512Z,10.60
2022-09-28T05:14:39.402Z,10.70
2022-09-28T05:17:07.373Z,10.70
2022-09-28T05:19:49.884Z,10.70
2022-09-28T05:22:19.219Z,10.70
2022-09-28T05:24:47.921Z,10.70
2022-09-28T05:27:18.005Z,10.70
2022-09-28T05:29:52.919Z,10.70
2022-09-28T05:32:41.372Z,10.70
2022-09-28T05:35:19.300Z,10.70
2022-09-28T05:37:50.223Z,10.70
2022-09-28T05:40:18.848Z,10.60
2022-09-28T05:42:46.911Z,10.60
2022-09-28T05:45:15.522Z,10.70
2022-09-28T05:47:46.854Z,10.70
2022-09-28T05:50:17.647Z,10.60
2022-09-28T05:52:45.796Z,10.60
2022-09-28T05:55:16.181Z,10.60
2022-09-28T05:57:44.858Z,10.70
2022-09-28T06:00:13.631Z,10.70
2022-09-28T06:02:43.307Z,10.70
2022-09-28T06:05:14.320Z,10.80
2022-09-28T06:07:42.776Z,10.70
2022-09-28T06:10:11.390Z,10.70
2022-09-28T06:12:45.581Z,10.70
2022-09-28T06:15:17.401Z,10.60
2022-09-28T06:17:47.297Z,10.70
2022-09-28T06:20:35.928Z,10.60
2022-09-28T06:23:15.794Z,10.60
2022-09-28T06:25:44.466Z,10.70
2022-09-28T06:28:15.627Z,10.70
2022-09-28T06:30:45.077Z,10.70
2022-09-28T06:33:17.097Z,10.70
2022-09-28T06:35:45.161Z,10.60
2022-09-28T06:38:13.169Z,10.70
2022-09-28T06:40:41.244Z,10.80
2022-09-28T06:43:14.924Z,10.80
2022-09-28T06:46:01.447Z,10.80
2022-09-28T06:48:48.125Z,10.70
2022-09-28T06:51:20.906Z,10.70
2022-09-28T06:53:57.220Z,10.70
2022-09-28T06:56:54.218Z,10.70
2022-09-28T06:59:24.014Z,10.70
2022-09-28T07:01:53.512Z,10.70
2022-09-28T07:04:43.041Z,10.80
2022-09-28T07:07:29.524Z,10.70
2022-09-28T07:10:05.349Z,10.70
2022-09-28T07:12:52.116Z,10.70
2022-09-28T07:15:38.020Z,10.70
2022-09-28T07:18:07.941Z,10.70
2022-09-28T07:20:49.255Z,10.80
2022-09-28T07:23:20.623Z,10.80
2022-09-28T07:26:09.236Z,10.80
2022-09-28T07:28:55.824Z,10.80
2022-09-28T07:31:40.828Z,10.80
2022-09-28T07:34:27.350Z,10.80
2022-09-28T07:37:00.205Z,10.90
2022-09-28T07:39:29.094Z,11.00
2022-09-28T07:41:59.828Z,11.00
2022-09-28T07:44:30.933Z,11.00
2022-09-28T07:47:02.035Z,11.00
2022-09-28T07:49:58.858Z,11.00
2022-09-28T07:52:41.007Z,11.00
2022-09-28T07:55:17.464Z,11.10
2022-09-28T07:58:09.942Z,11.10
2022-09-28T08:00:56.561Z,11.20
2022-09-28T08:03:27.203Z,11.30
2022-09-28T08:05:59.491Z,11.40
2022-09-28T08:08:27.590Z,11.40
2022-09-28T08:14:02.206Z,11.50
2022-09-28T08:16:53.915Z,11.70
2022-09-28T08:20:18.931Z,11.70
2022-09-28T08:22:47.670Z,11.80
2022-09-28T08:25:15.855Z,11.70
2022-09-28T08:27:43.891Z,11.80
2022-09-28T08:30:12.764Z,11.80
2022-09-28T08:33:13.520Z,11.70
2022-09-28T08:35:46.830Z,11.80
2022-09-28T08:38:21.786Z,11.80
2022-09-28T08:41:19.909Z,11.80
2022-09-28T08:44:11.208Z,11.80
2022-09-28T08:47:06.091Z,11.80
2022-09-28T08:49:51.784Z,11.90
2022-09-28T08:52:40.470Z,11.90
2022-09-28T08:55:33.530Z,12.00
2022-09-28T08:58:06.370Z,12.00
2022-09-28T09:00:43.298Z,11.90
2022-09-28T09:03:14.823Z,11.80
2022-09-28T09:06:00.711Z,11.80
2022-09-28T09:09:11.330Z,11.80
2022-09-28T09:11:54.910Z,11.80
2022-09-28T09:14:44.418Z,11.90
2022-09-28T09:17:23.355Z,12.00
2022-09-28T09:20:20.351Z,12.10
2022-09-28T09:23:03.787Z,12.10
2022-09-28T09:25:42.301Z,12.10
2022-09-28T09:28:35.255Z,12.00
2022-09-28T09:31:11.726Z,11.90
2022-09-28T09:34:15.501Z,12.00
2022-09-28T09:37:03.631Z,12.20
2022-09-28T09:40:07.599Z,12.30
2022-09-28T09:43:09.549Z,12.40
2022-09-28T09:45:59.697Z,12.60
2022-09-28T09:49:06.524Z,12.70
2022-09-28T09:51:41.101Z,12.90
2022-09-28T09:54:17.579Z,12.80
2022-09-28T09:56:53.253Z,12.80
2022-09-28T09:59:49.054Z,12.80
2022-09-28T10:02:43.732Z,12.80
2022-09-28T10:05:30.681Z,12.90
2022-09-28T10:08:04.030Z,13.00
2022-09-28T10:10:37.547Z,13.10
2022-09-28T10:13:10.915Z,13.10
2022-09-28T10:15:42.949Z,13.10
2022-09-28T10:18:19.946Z,13.20
2022-09-28T10:21:07.109Z,13.30
2022-09-28T10:23:57.626Z,13.30
2022-09-28T10:26:35.323Z,13.10
2022-09-28T10:29:11.582Z,13.10
2022-09-28T10:31:43.748Z,13.10
2022-09-28T10:34:28.359Z,13.00
2022-09-28T10:37:00.563Z,13.00
2022-09-28T10:39:37.595Z,13.10
2022-09-28T10:42:09.299Z,13.10
2022-09-28T10:44:52.449Z,13.10
2022-09-28T10:47:32.586Z,13.20
2022-09-28T10:50:01.471Z,13.30
2022-09-28T10:52:42.017Z,13.40
2022-09-28T10:55:27.624Z,13.50
2022-09-28T10:57:55.953Z,13.70
2022-09-28T11:00:35.301Z,13.70
2022-09-28T11:03:28.323Z,13.70
2022-09-28T11:06:03.885Z,13.60
2022-09-28T11:08:39.855Z,13.70
2022-09-28T11:11:11.633Z,13.60
2022-09-28T11:13:46.342Z,13.60
2022-09-28T11:16:24.528Z,13.60
2022-09-28T11:18:54.589Z,13.60
2022-09-28T11:21:28.810Z,13.50
2022-09-28T11:24:06.436Z,13.40
2022-09-28T11:26:43.429Z,13.40
2022-09-28T11:29:23.154Z,13.30
2022-09-28T11:32:08.462Z,13.40
2022-09-28T11:35:00.266Z,13.40
2022-09-28T11:37:55.362Z,13.60
2022-09-28T11:41:02.349Z,13.80
2022-09-28T11:43:50.705Z,13.90
2022-09-28T11:46:29.724Z,14.00
2022-09-28T11:49:12.263Z,14.10
2022-09-28T11:51:44.903Z,14.10
2022-09-28T11:54:21.887Z,14.00
2022-09-28T11:56:52.325Z,14.00
2022-09-28T11:59:27.539Z,14.00
2022-09-28T12:01:59.489Z,14.00
2022-09-28T12:04:48.048Z,14.00
2022-09-28T12:07:25.386Z,13.90
2022-09-28T12:09:58.804Z,13.80
2022-09-28T12:12:33.397Z,13.70
2022-09-28T12:15:13.434Z,13.70
2022-09-28T12:17:46.849Z,13.80
2022-09-28T12:20:21.557Z,13.80
2022-09-28T12:23:06.091Z,14.00
2022-09-28T12:25:41.381Z,14.10
2022-09-28T12:28:19.855Z,14.20
2022-09-28T12:30:49.250Z,14.20
2022-09-28T12:33:17.987Z,14.10
2022-09-28T12:36:01.838Z,14.00
2022-09-28T12:38:46.013Z,14.00
2022-09-28T12:41:29.069Z,13.90
2022-09-28T12:44:11.599Z,14.00
2022-09-28T12:46:50.474Z,14.00
2022-09-28T12:52:38.039Z,14.10
2022-09-28T12:55:18.334Z,14.20
2022-09-28T12:57:59.646Z,14.20
2022-09-28T13:00:36.004Z,14.30
2022-09-28T13:03:26.949Z,14.30
2022-09-28T13:06:30.665Z,14.40
2022-09-28T13:09:16.717Z,14.40
2022-09-28T13:12:06.456Z,14.50
2022-09-28T13:15:19.555Z,14.50
2022-09-28T13:17:54.993Z,14.50
2022-09-28T13:20:35.845Z,14.50
2022-09-28T13:23:15.093Z,14.60
2022-09-28T13:25:48.070Z,14.60
2022-09-28T13:28:24.976Z,14.60
2022-09-28T13:33:36.693Z,14.70
2022-09-28T13:36:05.696Z,14.70
2022-09-28T13:38:52.112Z,14.50
2022-09-28T13:41:28.961Z,14.40
2022-09-28T13:44:24.840Z,14.30
2022-09-28T13:47:20.494Z,14.30
2022-09-28T13:50:03.803Z,14.30
2022-09-28T13:52:45.935Z,14.10
2022-09-28T13:55:29.871Z,13.80
2022-09-28T13:58:01.864Z,13.80
2022-09-28T14:00:37.113Z,13.80
2022-09-28T14:03:14.960Z,13.60
2022-09-28T14:05:53.076Z,13.60
2022-09-28T14:08:29.698Z,13.60
2022-09-28T14:11:00.248Z,13.70
2022-09-28T14:13:59.997Z,13.80
2022-09-28T14:16:32.158Z,14.10
2022-09-28T14:19:04.682Z,14.80
2022-09-28T14:22:05.918Z,15.30
2022-09-28T14:24:55.968Z,15.60
2022-09-28T14:27:41.910Z,15.50
2022-09-28T14:30:21.891Z,15.30
2022-09-28T14:32:55.982Z,15.00
2022-09-28T14:35:32.529Z,14.90
2022-09-28T14:38:22.141Z,14.70
2022-09-28T14:41:12.919Z,14.50
2022-09-28T14:44:09.048Z,14.20
2022-09-28T14:46:38.955Z,14.00
2022-09-28T14:49:44.397Z,14.00
2022-09-28T14:52:14.533Z,13.80
2022-09-28T14:54:49.978Z,13.70
2022-09-28T14:57:21.038Z,13.70
2022-09-28T14:59:49.318Z,13.70
2022-09-28T15:02:38.407Z,13.50
2022-09-28T15:05:18.955Z,13.30
2022-09-28T15:07:49.629Z,13.30
2022-09-28T15:10:28.220Z,13.30
2022-09-28T15:12:57.182Z,13.30
2022-09-28T15:15:34.935Z,13.10
2022-09-28T15:18:12.781Z,13.10
2022-09-28T15:20:46.560Z,13.00
2022-09-28T15:23:27.593Z,12.90
2022-09-28T15:25:56.826Z,12.90
2022-09-28T15:28:25.482Z,12.80
2022-09-28T15:31:00.912Z,12.70
2022-09-28T15:33:48.287Z,12.70
2022-09-28T15:36:21.368Z,12.70
2022-09-28T15:38:56.563Z,12.70
2022-09-28T15:41:25.517Z,12.80
2022-09-28T15:44:08.422Z,12.90
2022-09-28T15:46:38.697Z,13.00
2022-09-28T15:49:08.395Z,13.00
2022-09-28T15:51:52.138Z,13.10
2022-09-28T15:54:25.108Z,13.10
2022-09-28T15:56:59.467Z,13.10
2022-09-28T15:59:32.564Z,13.10
2022-09-28T16:02:10.571Z,13.10
2022-09-28T16:04:41.886Z,13.10
2022-09-28T16:07:23.475Z,13.00
2022-09-28T16:10:04.642Z,13.00
2022-09-28T16:12:46.103Z,12.90
2022-09-28T16:15:20.201Z,13.00
2022-09-28T16:17:54.913Z,12.90
2022-09-28T16:20:29.151Z,12.90
2022-09-28T16:23:05.625Z,12.80
2022-09-28T16:25:35.761Z,12.80
2022-09-28T16:28:04.554Z,12.70
2022-09-28T16:30:33.782Z,12.70
2022-09-28T16:33:03.599Z,12.70
2022-09-28T16:35:33.073Z,12.70
2022-09-28T16:38:11.583Z,12.60
2022-09-28T16:40:42.487Z,12.50
2022-09-28T16:43:20.214Z,12.50
2022-09-28T16:45:48.363Z,12.40
2022-09-28T16:48:19.236Z,12.40
2022-09-28T16:50:47.381Z,12.40
2022-09-28T16:53:35.786Z,12.40
2022-09-28T16:56:05.628Z,12.40
2022-09-28T16:58:33.697Z,12.30
2022-09-28T17:01:02.068Z,12.30
2022-09-28T17:03:30.279Z,12.30
2022-09-28T17:06:01.447Z,12.30
2022-09-28T17:08:33.682Z,12.30
2022-09-28T17:11:14.952Z,12.30
2022-09-28T17:13:47.006Z,12.30
2022-09-28T17:16:18.340Z,12.30
2022-09-28T17:18:46.891Z,12.30
2022-09-28T17:21:16.913Z,12.30
2022-09-28T17:23:47.796Z,12.30
2022-09-28T17:26:20.532Z,12.30
2022-09-28T17:28:48.611Z,12.30
2022-09-28T17:31:17.606Z,12.20
2022-09-28T17:33:45.959Z,12.20
2022-09-28T17:36:15.903Z,12.20
2022-09-28T17:38:44.707Z,12.20
2022-09-28T17:41:20.023Z,12.20
2022-09-28T17:43:48.974Z,12.20
2022-09-28T17:46:29.109Z,12.30
2022-09-28T17:48:59.371Z,12.20
2022-09-28T17:51:28.885Z,12.20
2022-09-28T17:53:57.271Z,12.20
2022-09-28T17:56:31.640Z,12.20
2022-09-28T17:59:03.294Z,12.20
2022-09-28T18:01:34.297Z,12.10
2022-09-28T18:04:03.355Z,12.10
2022-09-28T18:06:33.494Z,12.00
2022-09-28T18:09:01.847Z,12.00
2022-09-28T18:11:31.598Z,12.00
2022-09-28T18:13:59.964Z,12.00
2022-09-28T18:16:29.231Z,11.90
2022-09-28T18:18:59.284Z,11.90
2022-09-28T18:21:27.571Z,11.90
2022-09-28T18:23:55.889Z,11.90
2022-09-28T18:26:24.093Z,11.80
2022-09-28T18:28:56.477Z,11.80
2022-09-28T18:31:25.118Z,11.80
2022-09-28T18:33:59.515Z,11.70
2022-09-28T18:36:30.439Z,11.70
2022-09-28T18:39:00.978Z,11.70
2022-09-28T18:41:29.890Z,11.60
2022-09-28T18:44:01.292Z,11.60
2022-09-28T18:46:32.355Z,11.60
2022-09-28T18:49:00.628Z,11.50
2022-09-28T18:51:29.089Z,11.50
2022-09-28T18:53:57.748Z,11.40
2022-09-28T18:56:27.131Z,11.40
2022-09-28T18:58:56.845Z,11.30
2022-09-28T19:01:31.155Z,11.40
2022-09-28T19:04:01.107Z,11.40
2022-09-28T19:06:29.767Z,11.40
2022-09-28T19:08:58.401Z,11.40
2022-09-28T19:11:27.555Z,11.30
2022-09-28T19:13:56.422Z,11.40
2022-09-28T19:16:28.450Z,11.30
2022-09-28T19:18:57.982Z,11.30
2022-09-28T19:21:27.305Z,11.30
2022-09-28T19:23:55.752Z,11.30
2022-09-28T19:26:26.913Z,11.30
2022-09-28T19:28:56.317Z,11.30
2022-09-28T19:31:26.917Z,11.30
2022-09-28T19:33:55.125Z,11.30
2022-09-28T19:36:24.916Z,11.30
2022-09-28T19:38:53.929Z,11.40
2022-09-28T19:41:44.307Z,11.40
2022-09-28T19:44:19.526Z,11.40
2022-09-28T19:46:49.201Z,11.50
2022-09-28T19:49:22.098Z,11.50
2022-09-28T19:54:39.898Z,11.50
2022-09-28T19:57:08.976Z,11.60
2022-09-28T19:59:37.871Z,11.50
2022-09-28T20:02:08.824Z,11.50
2022-09-28T20:04:37.035Z,11.50
2022-09-28T20:07:05.923Z,11.40
2022-09-28T20:09:34.314Z,11.40
2022-09-28T20:12:03.053Z,11.40
2022-09-28T20:14:36.329Z,11.30
2022-09-28T20:17:07.984Z,11.30
2022-09-28T20:19:36.218Z,11.30
2022-09-28T20:22:04.491Z,11.30
2022-09-28T20:24:33.264Z,11.30
2022-09-28T20:27:02.851Z,11.30
2022-09-28T20:29:33.526Z,11.20
2022-09-28T20:32:03.912Z,11.30
2022-09-28T20:34:34.358Z,11.30
2022-09-28T20:37:02.596Z,11.30
2022-09-28T20:39:30.687Z,11.20
2022-09-28T20:41:58.925Z,11.20
2022-09-28T20:44:27.017Z,11.20
2022-09-28T20:46:56.184Z,11.20
2022-09-28T20:49:24.314Z,11.30
2022-09-28T20:51:53.876Z,11.30
2022-09-28T20:54:22.372Z,11.20
2022-09-28T20:56:50.438Z,11.20
2022-09-28T20:59:18.566Z,11.20
2022-09-28T21:01:46.914Z,11.20
2022-09-28T21:04:15.277Z,11.20
2022-09-28T21:06:44.659Z,11.20
2022-09-28T21:09:14.283Z,11.20
2022-09-28T21:11:42.473Z,11.20
2022-09-28T21:14:10.896Z,11.20
2022-09-28T21:16:39.995Z,11.20
2022-09-28T21:19:08.322Z,11.20
2022-09-28T21:21:36.511Z,11.20
2022-09-28T21:24:05.078Z,11.30
2022-09-28T21:26:35.492Z,11.30
2022-09-28T21:29:05.567Z,11.30
2022-09-28T21:31:38.493Z,11.30
2022-09-28T21:34:07.084Z,11.30
2022-09-28T21:36:35.448Z,11.30
2022-09-28T21:39:07.113Z,11.20
2022-09-28T21:41:40.028Z,11.20
2022-09-28T21:44:08.680Z,11.20
2022-09-28T21:46:37.864Z,11.10
2022-09-28T21:49:08.084Z,11.20
2022-09-28T21:51:37.703Z,11.20
2022-09-28T21:54:06.697Z,11.20
2022-09-28T21:56:34.967Z,11.10
2022-09-28T21:59:04.399Z,11.10
2022-09-28T22:01:32.612Z,11.10
2022-09-28T22:04:04.804Z,11.10
2022-09-28T22:06:33.119Z,11.00
2022-09-28T22:09:01.321Z,11.00
2022-09-28T22:11:29.884Z,11.10
2022-09-28T22:13:59.972Z,11.10
2022-09-28T22:16:31.149Z,11.20
2022-09-28T22:18:59.509Z,11.20
2022-09-28T22:21:29.338Z,11.20
2022-09-28T22:24:00.884Z,11.20
2022-09-28T22:26:30.162Z,11.10
2022-09-28T22:29:00.093Z,11.20
2022-09-28T22:31:31.756Z,11.20
2022-09-28T22:34:00.144Z,11.20
2022-09-28T22:36:29.028Z,11.20
2022-09-28T22:38:58.342Z,11.20
2022-09-28T22:41:26.818Z,11.20
2022-09-28T22:43:55.783Z,11.20
2022-09-28T22:46:25.921Z,11.10
2022-09-28T22:48:57.103Z,11.10
2022-09-28T22:51:26.955Z,11.10
2022-09-28T22:53:56.461Z,11.10
2022-09-28T22:56:25.253Z,11.10
2022-09-28T22:58:53.725Z,11.20
2022-09-28T23:01:23.624Z,11.20
2022-09-28T23:03:53.070Z,11.20
2022-09-28T23:06:25.969Z,11.20
2022-09-28T23:08:54.652Z,11.20
2022-09-28T23:11:23.067Z,11.30
2022-09-28T23:13:51.596Z,11.30
2022-09-28T23:16:20.217Z,11.30
2022-09-28T23:18:49.220Z,11.30
2022-09-28T23:21:18.906Z,11.20
2022-09-28T23:23:53.227Z,11.20
2022-09-28T23:26:23.930Z,11.20
2022-09-28T23:28:52.675Z,11.20
2022-09-28T23:31:23.092Z,11.20
2022-09-28T23:33:51.968Z,11.20
2022-09-28T23:36:20.336Z,11.20
2022-09-28T23:38:49.789Z,11.30
2022-09-28T23:41:17.955Z,11.30
2022-09-28T23:43:46.189Z,11.30
2022-09-28T23:46:19.677Z,11.20
2022-09-28T23:48:49.093Z,11.30
2022-09-28T23:51:17.274Z,11.20
2022-09-28T23:53:45.858Z,11.20
2022-09-28T23:56:15.549Z,11.20
2022-09-28T23:58:44.048Z,11.20
